Time;durP1;ratioP1;P1;durP2;ratioP2;P2;SDS_P1;SDS_P2;PMS_P1;PMS_P2;Temp;Humidity;BMP_temperature;BMP_pressure;BME280_temperature;BME280_humidity;BME280_pressure;Samples;Min_cycle;Max_cycle;Signal;HPM_P1;HPM_P2
2022/05/23 00:02:01;;;;;;;0.40;0.40;;;14.60;99.90;;;;;;5038750;28;20199;-79
2022/05/23 00:04:27;;;;;;;0.40;0.40;;;14.60;1.00;;;;;;5038648;28;20679;-81
2022/05/23 00:06:55;;;;;;;0.47;0.47;;;14.60;99.90;;;;;;5038087;28;20182;-83
2022/05/23 00:09:21;;;;;;;0.30;0.30;;;14.50;99.90;;;;;;5038057;28;20180;-81
2022/05/23 00:11:46;;;;;;;0.50;0.50;;;14.50;99.90;;;;;;5038703;28;20207;-81
2022/05/23 00:14:13;;;;;;;0.30;0.30;;;14.60;99.90;;;;;;5038660;28;20255;-80
2022/05/23 00:16:45;;;;;;;0.40;0.40;;;14.50;28.70;;;;;;5039747;28;20180;-78
2022/05/23 00:19:12;;;;;;;0.40;0.40;;;14.60;1.00;;;;;;5041199;28;20184;-79
2022/05/23 00:21:40;;;;;;;0.40;0.40;;;14.60;1.00;;;;;;5042003;28;20219;-81
2022/05/23 00:24:07;;;;;;;0.40;0.40;;;14.50;1.00;;;;;;5042947;28;20318;-79
2022/05/23 00:26:33;;;;;;;0.30;0.30;;;14.50;1.00;;;;;;5040071;28;20176;-81
2022/05/23 00:28:58;;;;;;;0.40;0.40;;;14.50;1.00;;;;;;5037629;28;20248;-80
2022/05/23 00:31:24;;;;;;;0.40;0.40;;;14.50;1.00;;;;;;5037226;28;20211;-81
2022/05/23 00:36:34;;;;;;;0.40;0.40;;;14.40;1.00;;;;;;5037655;28;20187;-79
2022/05/23 00:39:01;;;;;;;0.40;0.40;;;14.40;1.00;;;;;;5036972;28;20179;-83
2022/05/23 00:44:31;;;;;;;0.30;0.30;;;14.40;99.90;;;;;;5038444;28;20270;-80
2022/05/23 00:47:20;;;;;;;0.30;0.30;;;14.40;99.90;;;;;;5037880;28;20236;-81
2022/05/23 00:49:46;;;;;;;0.30;0.30;;;14.30;99.90;;;;;;5037504;28;20176;-79
2022/05/23 00:52:21;;;;;;;0.30;0.30;;;14.30;33.20;;;;;;5037912;28;20226;-81
2022/05/23 00:54:49;;;;;;;0.40;0.40;;;14.20;1.00;;;;;;5038043;28;20263;-81
2022/05/23 00:57:30;;;;;;;0.30;0.30;;;14.20;62.60;;;;;;5038592;28;20603;-82
2022/05/23 00:59:55;;;;;;;0.30;0.30;;;14.10;1.00;;;;;;5038276;28;20263;-82
2022/05/23 01:02:22;;;;;;;0.40;0.40;;;14.20;1.20;;;;;;5038363;28;20273;-83
2022/05/23 01:04:49;;;;;;;0.40;0.40;;;14.10;1.00;;;;;;5039083;28;20195;-82
2022/05/23 01:07:15;;;;;;;0.50;0.50;;;14.10;1.00;;;;;;5047453;28;20179;-80
2022/05/23 01:09:41;;;;;;;0.50;0.50;;;14.00;99.90;;;;;;5048590;28;20218;-81
2022/05/23 01:12:07;;;;;;;0.40;0.40;;;13.90;1.00;;;;;;5048828;28;20212;-81
2022/05/23 01:14:48;;;;;;;0.50;0.50;;;13.90;1.00;;;;;;5039613;28;20206;-80
2022/05/23 01:17:14;;;;;;;0.40;0.40;;;13.80;1.00;;;;;;5036643;28;20187;-79
2022/05/23 01:19:39;;;;;;;127.90;54.10;;;13.80;1.00;;;;;;5036582;28;20172;-80
2022/05/23 01:22:22;;;;;;;0.40;0.40;;;13.80;1.00;;;;;;5037010;28;20207;-81
2022/05/23 01:24:59;;;;;;;0.60;0.60;;;13.80;1.00;;;;;;5036412;28;20200;-79
2022/05/23 01:27:28;;;;;;;0.47;0.47;;;13.70;1.00;;;;;;5036103;28;20168;-79
2022/05/23 01:29:54;;;;;;;0.47;0.47;;;13.70;22.00;;;;;;5035996;28;20720;-80
2022/05/23 01:32:20;;;;;;;0.40;0.40;;;13.60;1.00;;;;;;5035863;28;20261;-81
2022/05/23 01:34:45;;;;;;;0.47;0.47;;;13.60;1.00;;;;;;5036673;28;20195;-81
2022/05/23 01:37:11;;;;;;;41.30;38.30;;;13.60;1.00;;;;;;5037236;28;20182;-80
2022/05/23 01:39:37;;;;;;;0.40;0.40;;;13.60;1.00;;;;;;5037120;28;20210;-81
2022/05/23 01:42:02;;;;;;;0.50;0.50;;;13.60;1.00;;;;;;5036708;28;20202;-79
2022/05/23 01:44:28;;;;;;;0.40;0.40;;;13.50;1.00;;;;;;5037809;28;20258;-80
2022/05/23 01:46:54;;;;;;;0.40;0.40;;;13.50;1.00;;;;;;5037690;28;20514;-79
2022/05/23 01:49:20;;;;;;;0.60;0.60;;;13.50;1.00;;;;;;5036762;28;20660;-80
2022/05/23 01:51:46;;;;;;;0.40;0.40;;;13.50;1.00;;;;;;5037088;28;20649;-80
2022/05/23 01:54:12;;;;;;;0.50;0.50;;;13.50;1.00;;;;;;5037784;28;20191;-81
2022/05/23 01:56:38;;;;;;;0.47;0.47;;;13.50;1.00;;;;;;5036783;28;20230;-82
2022/05/23 02:01:48;;;;;;;0.50;0.50;;;13.50;1.00;;;;;;5037345;28;20206;-82
2022/05/23 02:04:13;;;;;;;0.30;0.30;;;13.40;1.00;;;;;;5036290;28;20251;-81
2022/05/23 02:06:39;;;;;;;0.50;0.50;;;13.40;96.90;;;;;;5036897;28;20175;-80
2022/05/23 02:09:04;;;;;;;0.50;0.50;;;13.40;99.90;;;;;;5035235;28;20172;-81
2022/05/23 02:11:30;;;;;;;0.50;0.50;;;13.40;99.90;;;;;;5034839;28;20218;-80
2022/05/23 02:13:56;;;;;;;0.30;0.30;;;13.40;99.90;;;;;;5034789;28;20172;-79
2022/05/23 02:16:22;;;;;;;0.37;0.37;;;13.30;84.00;;;;;;5034280;28;20172;-80
2022/05/23 02:18:48;;;;;;;0.40;0.40;;;13.30;99.90;;;;;;5034053;28;20211;-80
2022/05/23 02:21:13;;;;;;;0.50;0.50;;;13.30;99.90;;;;;;5034731;28;20196;-80
2022/05/23 02:23:39;;;;;;;0.40;0.40;;;13.30;99.90;;;;;;5033538;28;20575;-80
2022/05/23 02:26:05;;;;;;;0.50;0.50;;;13.30;1.00;;;;;;5035094;28;20222;-79
2022/05/23 02:28:30;;;;;;;0.53;0.53;;;13.20;1.00;;;;;;5034216;28;20176;-80
2022/05/23 02:30:56;;;;;;;0.50;0.50;;;13.20;1.00;;;;;;5034005;28;20187;-81
2022/05/23 02:33:21;;;;;;;0.50;0.50;;;13.20;23.30;;;;;;5033742;28;20212;-80
2022/05/23 02:35:48;;;;;;;0.50;0.50;;;13.20;99.90;;;;;;5034720;28;20179;-79
2022/05/23 02:38:13;;;;;;;0.50;0.50;;;13.10;99.90;;;;;;5034559;28;20195;-80
2022/05/23 02:40:39;;;;;;;0.50;0.50;;;13.20;99.90;;;;;;5034087;28;20568;-81
2022/05/23 02:43:04;;;;;;;0.50;0.50;;;13.20;99.90;;;;;;5034037;28;20179;-79
2022/05/23 02:45:30;;;;;;;0.50;0.50;;;13.20;99.90;;;;;;5034823;28;20278;-79
2022/05/23 02:47:56;;;;;;;0.40;0.40;;;13.30;99.90;;;;;;5033642;28;20179;-79
2022/05/23 02:50:21;;;;;;;0.53;0.53;;;13.30;99.90;;;;;;5033700;28;20179;-82
2022/05/23 02:52:47;;;;;;;0.47;0.47;;;13.30;99.90;;;;;;5032537;28;20243;-80
2022/05/23 02:55:13;;;;;;;0.50;0.50;;;13.30;99.90;;;;;;5034172;28;20240;-80
2022/05/23 02:57:38;;;;;;;0.40;0.40;;;13.30;95.40;;;;;;5033765;28;20198;-80
2022/05/23 03:00:08;;;;;;;0.60;0.60;;;13.20;99.90;;;;;;5033008;28;20204;-81
2022/05/23 03:05:19;;;;;;;0.40;0.40;;;13.10;1.00;;;;;;5140363;22;20242;-77
2022/05/23 03:07:45;;;;;;;0.40;0.40;;;13.00;1.00;;;;;;5013468;28;20192;-78
2022/05/23 03:10:11;;;;;;;0.50;0.50;;;13.00;1.00;;;;;;5013791;28;20223;-78
2022/05/23 03:12:37;;;;;;;0.50;0.50;;;13.00;1.00;;;;;;5013876;28;20787;-78
2022/05/23 03:15:05;;;;;;;0.47;0.47;;;13.00;1.00;;;;;;5014355;28;20176;-77
2022/05/23 03:17:31;;;;;;;0.50;0.50;;;13.00;1.00;;;;;;5014062;28;20210;-78
2022/05/23 03:19:56;;;;;;;0.40;0.40;;;13.00;1.00;;;;;;5012663;28;20173;-77
2022/05/23 03:27:50;;;;;;;0.50;0.50;;;13.00;1.00;;;;;;5011633;28;20211;-77
2022/05/23 03:30:16;;;;;;;0.40;0.40;;;13.10;1.00;;;;;;5010916;28;20168;-77
2022/05/23 03:32:42;;;;;;;0.40;0.40;;;13.00;1.00;;;;;;5011714;28;20226;-77
2022/05/23 03:35:08;;;;;;;0.57;0.57;;;13.20;1.00;;;;;;5011641;28;20256;-77
2022/05/23 03:37:34;;;;;;;0.50;0.50;;;13.10;1.00;;;;;;5011498;28;20603;-77
2022/05/23 03:40:03;;;;;;;0.40;0.40;;;13.10;1.00;;;;;;5010975;28;20180;-76
2022/05/23 03:42:29;;;;;;;0.50;0.50;;;13.10;1.00;;;;;;5011354;28;20204;-77
2022/05/23 03:44:55;;;;;;;0.40;0.40;;;13.20;1.00;;;;;;5011399;28;20222;-77
2022/05/23 03:47:20;;;;;;;0.50;0.50;;;13.20;1.00;;;;;;5011557;28;20215;-78
2022/05/23 03:49:46;;;;;;;0.50;0.50;;;13.20;1.00;;;;;;5011297;28;20177;-77
2022/05/23 03:52:12;;;;;;;0.50;0.50;;;13.30;1.00;;;;;;5011310;28;20638;-76
2022/05/23 03:54:37;;;;;;;0.70;0.70;;;13.30;1.00;;;;;;5011385;28;20729;-77
2022/05/23 03:57:04;;;;;;;0.60;0.60;;;13.30;1.00;;;;;;5011449;28;20672;-78
2022/05/23 03:59:30;;;;;;;0.40;0.40;;;13.30;1.00;;;;;;5011372;28;20169;-77
2022/05/23 04:01:57;;;;;;;0.50;0.50;;;13.30;1.00;;;;;;5011749;28;20204;-77
2022/05/23 04:04:28;;;;;;;0.60;0.60;;;13.40;1.00;;;;;;5011606;28;20665;-78
2022/05/23 04:06:59;;;;;;;0.50;0.50;;;13.40;1.00;;;;;;5011307;28;20649;-77
2022/05/23 04:09:25;;;;;;;0.60;0.60;;;13.50;1.00;;;;;;5011007;28;20181;-78
2022/05/23 04:11:51;;;;;;;0.50;0.50;;;13.50;1.00;;;;;;5012156;28;20231;-78
2022/05/23 04:14:16;;;;;;;0.50;0.50;;;13.50;1.00;;;;;;5012177;28;20200;-78
2022/05/23 04:16:48;;;;;;;0.50;0.50;;;13.60;1.00;;;;;;5011685;28;20200;-77
2022/05/23 04:19:15;;;;;;;0.40;0.40;;;13.60;1.00;;;;;;5010977;28;20181;-78
2022/05/23 04:21:42;;;;;;;0.43;0.43;;;13.70;1.00;;;;;;5011359;28;20204;-77
2022/05/23 04:24:09;;;;;;;0.40;0.40;;;13.60;1.00;;;;;;5011606;28;20188;-78
2022/05/23 04:26:35;;;;;;;0.40;0.40;;;13.70;1.00;;;;;;5011425;28;20558;-77
2022/05/23 04:29:01;;;;;;;0.50;0.50;;;13.70;51.00;;;;;;5010650;28;20653;-78
2022/05/23 04:31:27;;;;;;;0.60;0.60;;;13.80;96.10;;;;;;5010568;28;20216;-77
2022/05/23 04:36:37;;;;;;;0.50;0.50;;;14.40;1.00;;;;;;5008646;28;20195;-76
2022/05/23 04:39:02;;;;;;;0.40;0.40;;;14.60;1.00;;;;;;5010822;28;20176;-76
2022/05/23 04:41:28;;;;;;;0.40;0.40;;;14.80;1.00;;;;;;5013817;28;20250;-76
2022/05/23 04:43:54;;;;;;;0.50;0.50;;;14.90;1.00;;;;;;5013892;28;20181;-77
2022/05/23 04:46:19;;;;;;;0.40;0.40;;;14.90;91.10;;;;;;5014510;28;20183;-77
2022/05/23 04:51:29;;;;;;;0.50;0.50;;;14.70;99.90;;;;;;5014257;28;20246;-77
2022/05/23 04:53:55;;;;;;;0.50;0.50;;;14.50;99.90;;;;;;5014487;28;20314;-75
2022/05/23 04:56:22;;;;;;;0.40;0.40;;;14.50;99.90;;;;;;5014515;28;20184;-75
2022/05/23 04:58:48;;;;;;;0.40;0.40;;;14.50;99.90;;;;;;5014176;28;20180;-75
2022/05/23 05:01:14;;;;;;;0.47;0.47;;;14.50;99.90;;;;;;5013633;28;20256;-76
2022/05/23 05:03:39;;;;;;;0.40;0.40;;;14.50;99.90;;;;;;5014121;28;20179;-77
2022/05/23 05:06:05;;;;;;;0.40;0.40;;;14.60;99.90;;;;;;5014052;28;20623;-76
2022/05/23 05:08:30;;;;;;;0.40;0.40;;;14.50;99.90;;;;;;5014251;28;20658;-77
2022/05/23 05:10:59;;;;;;;0.30;0.30;;;14.50;99.90;;;;;;5013812;28;20215;-75
2022/05/23 05:13:25;;;;;;;0.40;0.40;;;14.50;99.90;;;;;;5014098;28;20208;-77
2022/05/23 05:15:51;;;;;;;0.50;0.50;;;14.50;99.90;;;;;;5014003;28;20172;-77
2022/05/23 05:18:17;;;;;;;0.40;0.40;;;14.50;99.90;;;;;;5014156;28;20172;-77
2022/05/23 05:20:43;;;;;;;0.50;0.50;;;14.50;99.90;;;;;;5013509;28;20195;-77
2022/05/23 05:23:08;;;;;;;0.40;0.40;;;14.50;99.90;;;;;;5014091;28;20229;-77
2022/05/23 05:25:34;;;;;;;0.50;0.50;;;14.50;99.90;;;;;;5013981;28;20176;-77
2022/05/23 05:28:00;;;;;;;0.50;0.50;;;14.50;99.90;;;;;;5013833;28;20251;-76
2022/05/23 05:30:25;;;;;;;0.40;0.40;;;14.60;99.90;;;;;;5013071;28;20185;-76
2022/05/23 05:33:09;;;;;;;0.40;0.40;;;14.60;99.90;;;;;;5013122;28;20897;-75
2022/05/23 05:35:50;;;;;;;0.40;0.40;;;14.70;99.90;;;;;;5013872;28;20226;-75
2022/05/23 05:38:25;;;;;;;0.30;0.30;;;14.70;99.90;;;;;;5013350;28;20180;-75
2022/05/23 05:40:57;;;;;;;0.40;0.40;;;14.80;99.90;;;;;;5012808;28;20226;-75
2022/05/23 05:43:33;;;;;;;0.30;0.30;;;14.90;99.90;;;;;;5013613;28;20264;-76
2022/05/23 05:46:10;;;;;;;0.40;0.40;;;14.90;99.90;;;;;;5012736;28;20184;-73
2022/05/23 05:48:40;;;;;;;0.43;0.43;;;14.90;99.90;;;;;;5013381;28;20251;-75
2022/05/23 05:51:07;;;;;;;0.30;0.30;;;14.90;99.90;;;;;;5011306;28;20422;-74
2022/05/23 05:53:33;;;;;;;0.30;0.30;;;14.70;99.90;;;;;;5012689;28;20187;-74
2022/05/23 05:56:00;;;;;;;0.30;0.30;;;14.90;99.90;;;;;;5013356;28;20176;-75
2022/05/23 05:58:27;;;;;;;0.43;0.43;;;14.80;99.90;;;;;;5007202;28;20680;-72
2022/05/23 06:00:52;;;;;;;0.40;0.40;;;14.80;99.90;;;;;;5011249;28;20212;-73
2022/05/23 06:03:18;;;;;;;0.40;0.40;;;14.70;99.90;;;;;;5012884;28;20602;-73
2022/05/23 06:11:23;;;;;;;0.40;0.40;;;14.70;99.90;;;;;;5011699;28;20283;-73
2022/05/23 06:13:50;;;;;;;0.50;0.50;;;14.80;99.90;;;;;;5012696;28;20198;-72
2022/05/23 06:16:16;;;;;;;0.50;0.50;;;14.90;99.90;;;;;;5011806;28;20616;-72
2022/05/23 06:18:42;;;;;;;0.40;0.40;;;15.00;99.90;;;;;;5011235;28;20192;-73
2022/05/23 06:21:09;;;;;;;0.30;0.30;;;15.30;99.90;;;;;;5011245;28;20255;-72
2022/05/23 06:23:36;;;;;;;0.37;0.37;;;15.70;99.90;;;;;;5011832;28;20603;-74
2022/05/23 06:26:02;;;;;;;0.30;0.30;;;15.90;99.90;;;;;;5012125;28;20224;-74
2022/05/23 06:28:28;;;;;;;0.60;0.60;;;16.10;99.90;;;;;;5011894;28;20184;-73
2022/05/23 06:30:54;;;;;;;0.40;0.40;;;16.00;99.90;;;;;;5011737;28;20692;-75
2022/05/23 06:33:20;;;;;;;0.40;0.40;;;16.00;99.90;;;;;;5011286;28;20644;-74
2022/05/23 06:35:45;;;;;;;0.30;0.30;;;16.10;99.90;;;;;;5011466;28;20245;-73
2022/05/23 06:38:11;;;;;;;0.30;0.30;;;16.20;99.90;;;;;;5011428;28;20185;-73
2022/05/23 06:40:36;;;;;;;0.30;0.30;;;16.20;99.90;;;;;;5010975;28;20187;-75
2022/05/23 06:43:02;;;;;;;0.40;0.40;;;16.20;99.90;;;;;;5011044;28;20184;-73
2022/05/23 06:45:28;;;;;;;0.30;0.30;;;16.10;99.90;;;;;;5011254;28;20207;-73
2022/05/23 06:47:54;;;;;;;0.40;0.40;;;16.10;99.90;;;;;;5011504;28;20184;-76
2022/05/23 06:50:20;;;;;;;0.40;0.40;;;16.20;99.90;;;;;;5010697;28;20188;-73
2022/05/23 06:52:46;;;;;;;0.30;0.30;;;16.30;5.80;;;;;;5011034;28;20224;-75
2022/05/23 06:55:12;;;;;;;0.40;0.40;;;16.40;1.00;;;;;;5009285;28;20187;-76
2022/05/23 06:57:37;;;;;;;0.30;0.30;;;16.40;99.90;;;;;;5011007;28;20538;-75
2022/05/23 07:00:05;;;;;;;0.30;0.30;;;16.20;58.80;;;;;;5011028;28;20180;-75
2022/05/23 07:02:30;;;;;;;0.30;0.30;;;16.40;99.90;;;;;;5011303;28;20224;-75
2022/05/23 07:13:10;;;;;;;0.30;0.30;;;17.00;1.00;;;;;;5008577;28;20238;-75
2022/05/23 07:15:37;;;;;;;43.23;40.23;;;17.20;1.00;;;;;;5011626;28;20638;-74
2022/05/23 07:18:04;;;;;;;24.10;22.67;;;17.30;1.00;;;;;;5011659;28;20204;-76
2022/05/23 07:20:30;;;;;;;0.40;0.40;;;17.50;1.00;;;;;;5010797;28;20191;-75
2022/05/23 07:22:56;;;;;;;0.30;0.30;;;17.30;1.00;;;;;;5011768;28;20295;-74
2022/05/23 07:25:21;;;;;;;0.40;0.40;;;17.20;1.00;;;;;;5011524;28;20190;-76
2022/05/23 07:27:47;;;;;;;0.40;0.40;;;17.20;1.00;;;;;;5012143;28;20573;-76
2022/05/23 07:30:12;;;;;;;0.30;0.30;;;17.20;1.00;;;;;;5011239;28;20184;-75
2022/05/23 07:32:38;;;;;;;0.37;0.37;;;17.20;1.00;;;;;;5011295;28;20727;-76
2022/05/23 07:35:04;;;;;;;0.40;0.40;;;17.20;1.00;;;;;;5011728;28;20176;-75
2022/05/23 07:37:31;;;;;;;0.30;0.30;;;17.10;1.00;;;;;;5010882;28;20283;-77
2022/05/23 07:39:56;;;;;;;0.30;0.30;;;17.20;1.00;;;;;;5010916;28;20194;-76
2022/05/23 07:42:23;;;;;;;0.40;0.40;;;17.40;1.00;;;;;;5011987;28;20527;-77
2022/05/23 07:44:48;;;;;;;0.30;0.30;;;17.60;1.00;;;;;;5012417;28;20206;-77
2022/05/23 07:47:14;;;;;;;0.40;0.40;;;17.90;1.00;;;;;;5011453;28;20177;-78
2022/05/23 07:49:39;;;;;;;0.30;0.30;;;18.30;1.00;;;;;;5010375;28;20180;-77
2022/05/23 07:52:05;;;;;;;0.40;0.40;;;18.70;1.00;;;;;;5011601;28;20297;-77
2022/05/23 08:02:44;;;;;;;0.40;0.40;;;18.80;99.90;;;;;;5011413;28;20731;-77
2022/05/23 08:05:12;;;;;;;0.30;0.30;;;18.80;99.90;;;;;;5011318;28;20242;-75
2022/05/23 08:07:38;;;;;;;0.30;0.30;;;18.80;1.00;;;;;;5011452;28;20177;-76
2022/05/23 08:10:04;;;;;;;0.30;0.30;;;18.90;99.90;;;;;;5010714;28;20213;-76
2022/05/23 08:12:31;;;;;;;0.30;0.30;;;19.00;99.90;;;;;;5011128;28;20371;-75
2022/05/23 08:14:58;;;;;;;0.33;0.33;;;19.20;99.90;;;;;;5012083;28;20258;-76
2022/05/23 08:17:23;;;;;;;0.30;0.30;;;19.60;99.90;;;;;;5014956;28;20263;-74
2022/05/23 08:19:49;;;;;;;0.30;0.30;;;19.90;1.00;;;;;;5014982;28;20684;-74
2022/05/23 08:22:15;;;;;;;0.30;0.30;;;19.90;1.00;;;;;;5015182;28;20220;-75
2022/05/23 08:24:42;;;;;;;0.30;0.30;;;19.70;1.00;;;;;;5015293;28;20195;-75
2022/05/23 08:27:08;;;;;;;0.30;0.30;;;19.60;1.00;;;;;;5015531;28;20183;-76
2022/05/23 08:29:36;;;;;;;0.30;0.30;;;19.50;99.90;;;;;;5014283;28;20561;-75
2022/05/23 08:32:03;;;;;;;0.30;0.30;;;19.60;1.00;;;;;;5012592;28;21115;-74
2022/05/23 08:34:31;;;;;;;0.30;0.30;;;19.70;99.00;;;;;;5013780;28;20176;-75
2022/05/23 08:36:58;;;;;;;0.30;0.30;;;19.80;1.00;;;;;;5014853;28;20180;-76
2022/05/23 08:39:24;;;;;;;0.30;0.30;;;19.70;1.00;;;;;;5015437;28;20183;-75
2022/05/23 08:41:51;;;;;;;0.30;0.30;;;19.70;99.90;;;;;;5012805;28;20678;-75
2022/05/23 08:44:41;;;;;;;0.30;0.30;;;19.50;1.00;;;;;;5012014;28;20172;-75
2022/05/23 08:47:29;;;;;;;18.77;17.23;;;19.70;99.90;;;;;;5013260;28;20239;-75
2022/05/23 08:49:54;;;;;;;1.80;1.80;;;19.90;1.00;;;;;;5010734;28;20173;-75
2022/05/23 08:52:38;;;;;;;0.30;0.30;;;20.30;99.90;;;;;;5013994;28;20636;-78
2022/05/23 08:55:26;;;;;;;0.30;0.30;;;20.50;1.00;;;;;;5007840;28;20188;-76
2022/05/23 08:58:00;;;;;;;0.40;0.40;;;20.40;96.00;;;;;;5014032;28;20176;-75
2022/05/23 09:00:35;;;;;;;0.40;0.40;;;20.30;1.00;;;;;;4995434;28;20178;-75
2022/05/23 09:03:12;;;;;;;0.20;0.20;;;20.20;99.90;;;;;;5013402;28;20584;-75
2022/05/23 09:05:44;;;;;;;0.30;0.30;;;20.30;99.90;;;;;;5013662;28;20199;-75
2022/05/23 09:08:19;;;;;;;0.30;0.30;;;20.40;99.90;;;;;;5014155;28;20546;-75
2022/05/23 09:11:00;;;;;;;0.30;0.30;;;20.40;99.90;;;;;;5012880;28;20176;-74
2022/05/23 09:13:27;;;;;;;0.30;0.30;;;20.30;1.00;;;;;;5013292;28;20216;-75
2022/05/23 09:15:59;;;;;;;0.37;0.37;;;20.10;1.00;;;;;;5014125;28;20183;-76
2022/05/23 09:18:35;;;;;;;0.30;0.30;;;19.90;1.00;;;;;;5014113;28;20195;-74
2022/05/23 09:21:04;;;;;;;0.30;0.30;;;19.80;1.00;;;;;;5013474;28;20270;-74
2022/05/23 09:23:38;;;;;;;0.30;0.30;;;19.80;1.00;;;;;;5013515;28;20572;-76
2022/05/23 09:26:12;;;;;;;0.30;0.30;;;20.00;1.00;;;;;;5011961;28;20173;-75
2022/05/23 09:28:39;;;;;;;0.30;0.30;;;20.00;1.00;;;;;;5012785;28;20176;-75
2022/05/23 09:31:17;;;;;;;0.40;0.40;;;20.00;1.00;;;;;;5011752;28;20230;-75
2022/05/23 09:33:46;;;;;;;0.30;0.30;;;19.90;1.00;;;;;;5011847;28;20677;-75
2022/05/23 09:36:19;;;;;;;0.30;0.30;;;20.10;1.00;;;;;;5010680;28;20723;-76
2022/05/23 09:38:56;;;;;;;0.30;0.30;;;20.40;99.90;;;;;;5012434;28;20188;-75
2022/05/23 09:49:57;;;;;;;0.30;0.30;;;21.50;1.00;;;;;;5012391;28;20632;-76
2022/05/23 09:52:32;;;;;;;0.30;0.30;;;21.60;99.90;;;;;;5012459;28;20212;-77
2022/05/23 09:55:09;;;;;;;11.17;10.63;;;22.10;1.00;;;;;;5008870;28;20187;-77
2022/05/23 09:57:39;;;;;;;0.50;0.50;;;22.50;99.90;;;;;;5012114;28;20187;-77
2022/05/23 10:00:09;;;;;;;0.50;0.50;;;22.70;99.90;;;;;;5010401;28;20173;-76
2022/05/23 10:03:00;;;;;;;0.70;0.70;;;22.60;1.00;;;;;;5013792;28;20206;-76
2022/05/23 10:05:41;;;;;;;0.20;0.20;;;22.60;99.90;;;;;;5012974;28;20203;-76
2022/05/23 10:08:13;;;;;;;0.30;0.30;;;22.40;1.00;;;;;;5013201;28;20177;-76
2022/05/23 10:10:56;;;;;;;0.30;0.30;;;22.30;99.90;;;;;;5013151;28;20183;-76
2022/05/23 10:13:30;;;;;;;0.30;0.30;;;22.20;99.90;;;;;;5013032;28;20209;-77
2022/05/23 10:16:09;;;;;;;0.30;0.30;;;22.10;1.00;;;;;;5012817;28;20187;-76
2022/05/23 10:18:45;;;;;;;0.37;0.37;;;22.00;18.50;;;;;;5012969;28;20203;-77
2022/05/23 10:21:40;;;;;;;0.20;0.20;;;22.00;1.00;;;;;;5012531;28;20211;-76
2022/05/23 10:24:14;;;;;;;0.30;0.30;;;22.00;52.00;;;;;;5013123;28;20543;-76
2022/05/23 10:26:55;;;;;;;0.30;0.30;;;22.00;75.10;;;;;;5013014;28;20199;-76
2022/05/23 10:29:51;;;;;;;0.30;0.30;;;22.00;1.00;;;;;;5010289;28;20176;-76
2022/05/23 10:32:22;;;;;;;0.30;0.30;;;21.90;1.00;;;;;;5010444;28;20213;-75
2022/05/23 10:34:52;;;;;;;0.30;0.30;;;21.80;1.00;;;;;;5011087;28;20196;-76
2022/05/23 10:37:24;;;;;;;0.30;0.30;;;21.70;99.90;;;;;;5010514;28;20203;-76
2022/05/23 10:42:51;;;;;;;0.30;0.30;;;21.50;1.00;;;;;;5011897;28;20227;-75
2022/05/23 10:45:20;;;;;;;0.30;0.30;;;21.40;1.00;;;;;;5010639;28;20247;-75
2022/05/23 10:47:48;;;;;;;0.30;0.30;;;21.40;1.00;;;;;;5012197;28;20169;-75
2022/05/23 10:50:26;;;;;;;0.30;0.30;;;21.40;1.00;;;;;;5011596;28;20169;-74
2022/05/23 10:53:16;;;;;;;0.20;0.20;;;21.30;1.00;;;;;;5010953;28;20309;-74
2022/05/23 10:56:08;;;;;;;0.27;0.27;;;21.20;1.00;;;;;;5012510;28;20180;-75
2022/05/23 10:58:56;;;;;;;0.30;0.30;;;21.10;1.00;;;;;;5012599;28;20200;-74
2022/05/23 11:01:37;;;;;;;0.27;0.27;;;21.00;1.00;;;;;;5012469;28;20192;-75
2022/05/23 11:04:15;;;;;;;0.30;0.30;;;20.80;1.00;;;;;;5012851;28;20202;-75
2022/05/23 11:06:59;;;;;;;0.30;0.30;;;20.80;11.80;;;;;;5012247;28;20261;-75
2022/05/23 11:09:49;;;;;;;0.30;0.30;;;20.70;99.90;;;;;;5011772;28;20180;-75
2022/05/23 11:12:26;;;;;;;0.30;0.30;;;20.60;99.90;;;;;;5012387;28;20731;-75
2022/05/23 11:15:12;;;;;;;0.30;0.30;;;20.50;99.90;;;;;;5012399;28;20183;-75
2022/05/23 11:18:01;;;;;;;0.20;0.20;;;20.30;99.90;;;;;;5011977;28;20193;-76
2022/05/23 11:20:37;;;;;;;0.30;0.30;;;20.10;98.10;;;;;;5011388;28;20191;-76
2022/05/23 11:23:28;;;;;;;0.40;0.40;;;19.90;99.90;;;;;;5011884;28;20657;-75
2022/05/23 11:26:02;;;;;;;0.20;0.20;;;19.70;99.90;;;;;;5011936;28;20180;-76
2022/05/23 11:34:44;;;;;;;0.30;0.30;;;19.30;99.90;;;;;;5011751;28;20172;-76
2022/05/23 11:39:56;;;;;;;0.20;0.20;;;19.00;99.90;;;;;;5011327;28;20261;-75
2022/05/23 11:42:30;;;;;;;0.30;0.30;;;18.90;99.90;;;;;;5011628;28;20189;-73
2022/05/23 11:48:01;;;;;;;0.30;0.30;;;18.60;99.90;;;;;;5011259;28;20230;-75
2022/05/23 11:50:32;;;;;;;0.30;0.30;;;18.40;99.90;;;;;;5012765;28;20541;-75
2022/05/23 11:53:26;;;;;;;0.40;0.40;;;18.30;99.90;;;;;;5015510;28;20216;-74
2022/05/23 11:55:53;;;;;;;0.40;0.40;;;18.20;99.90;;;;;;5015232;28;20556;-76
2022/05/23 11:58:24;;;;;;;0.40;0.40;;;18.00;99.90;;;;;;5015667;28;20192;-75
2022/05/23 12:01:18;;;;;;;0.30;0.30;;;17.90;99.90;;;;;;5014891;28;20204;-75
2022/05/23 12:03:50;;;;;;;0.30;0.30;;;17.70;99.90;;;;;;5015325;28;20185;-75
2022/05/23 12:06:23;;;;;;;0.30;0.30;;;17.70;99.90;;;;;;5015200;28;20661;-74
2022/05/23 12:08:58;;;;;;;0.30;0.30;;;17.70;99.90;;;;;;5015429;28;20180;-76
2022/05/23 12:11:26;;;;;;;0.40;0.40;;;17.50;99.90;;;;;;5015130;28;20196;-75
2022/05/23 12:13:58;;;;;;;0.33;0.33;;;17.60;99.90;;;;;;5014930;28;20204;-74
2022/05/23 12:16:29;;;;;;;0.30;0.30;;;17.60;99.90;;;;;;5014957;28;20318;-75
2022/05/23 12:19:33;;;;;;;0.40;0.40;;;17.70;99.90;;;;;;5014401;28;20212;-76
2022/05/23 12:22:18;;;;;;;0.30;0.30;;;17.50;99.90;;;;;;5004620;28;20208;-75
2022/05/23 12:25:09;;;;;;;0.50;0.50;;;17.40;99.90;;;;;;5014801;28;20490;-76
2022/05/23 12:27:37;;;;;;;97.50;90.80;;;17.40;99.90;;;;;;5015056;28;20529;-75
2022/05/23 12:30:21;;;;;;;0.30;0.30;;;17.30;99.90;;;;;;5014378;28;20180;-75
2022/05/23 12:32:50;;;;;;;0.40;0.40;;;17.30;99.90;;;;;;5014529;28;20586;-75
2022/05/23 12:35:19;;;;;;;0.33;0.33;;;17.30;99.90;;;;;;5014662;28;20176;-75
2022/05/23 12:38:00;;;;;;;0.30;0.30;;;17.40;99.90;;;;;;5014377;28;20261;-74
2022/05/23 12:40:35;;;;;;;0.30;0.30;;;17.50;99.90;;;;;;5014245;28;20176;-76
2022/05/23 12:43:09;;;;;;;0.40;0.40;;;17.50;99.90;;;;;;5014686;28;20179;-76
2022/05/23 12:45:53;;;;;;;0.47;0.47;;;17.70;99.90;;;;;;5014564;28;20164;-75
2022/05/23 12:48:43;;;;;;;0.30;0.30;;;17.90;99.90;;;;;;5014505;28;20175;-75
2022/05/23 12:51:48;;;;;;;0.30;0.30;;;18.10;99.90;;;;;;5014075;28;20204;-75
2022/05/23 12:54:21;;;;;;;0.30;0.30;;;18.40;99.90;;;;;;5014154;28;20187;-75
2022/05/23 12:57:04;;;;;;;0.37;0.37;;;18.60;99.90;;;;;;5014903;28;20287;-75
2022/05/23 12:59:39;;;;;;;65.93;20.53;;;18.90;99.90;;;;;;5013899;28;20172;-75
2022/05/23 13:02:11;;;;;;;38.47;19.60;;;19.10;99.90;;;;;;5013526;28;20192;-75
2022/05/23 13:04:53;;;;;;;0.27;0.27;;;19.20;99.90;;;;;;5012729;28;20176;-75
2022/05/23 13:07:33;;;;;;;0.30;0.30;;;19.30;99.90;;;;;;5014601;28;20717;-75
2022/05/23 13:10:09;;;;;;;0.30;0.30;;;19.60;99.90;;;;;;5014061;28;20176;-74
2022/05/23 13:12:44;;;;;;;0.37;0.37;;;19.70;94.70;;;;;;5013609;28;20223;-75
2022/05/23 13:15:10;;;;;;;0.33;0.33;;;19.80;20.80;;;;;;5013928;28;20168;-74
2022/05/23 13:17:44;;;;;;;0.40;0.40;;;20.00;36.60;;;;;;5014120;28;20583;-76
2022/05/23 13:23:18;;;;;;;0.30;0.30;;;20.30;1.00;;;;;;5014010;28;20188;-74
2022/05/23 13:25:45;;;;;;;0.30;0.30;;;20.60;1.00;;;;;;5013699;28;20180;-75
2022/05/23 13:28:13;;;;;;;0.30;0.30;;;20.90;1.00;;;;;;5013805;28;20393;-74
2022/05/23 13:30:46;;;;;;;0.30;0.30;;;21.10;1.00;;;;;;5012970;28;20204;-75
2022/05/23 13:33:18;;;;;;;0.30;0.30;;;21.30;1.00;;;;;;5013380;28;20703;-73
2022/05/23 13:35:46;;;;;;;0.30;0.30;;;21.60;1.00;;;;;;5013713;28;20192;-74
2022/05/23 13:38:24;;;;;;;0.30;0.30;;;21.50;1.00;;;;;;5013661;28;20210;-74
2022/05/23 13:40:53;;;;;;;0.30;0.30;;;21.60;1.00;;;;;;5012917;28;20230;-75
2022/05/23 13:43:41;;;;;;;0.20;0.20;;;21.70;1.00;;;;;;5013190;28;20175;-74
2022/05/23 13:46:12;;;;;;;0.30;0.30;;;21.80;1.00;;;;;;5012804;28;20173;-75
2022/05/23 13:48:55;;;;;;;0.30;0.30;;;21.80;1.00;;;;;;5013217;28;20188;-73
2022/05/23 13:51:27;;;;;;;0.30;0.30;;;22.00;99.90;;;;;;5013421;28;20196;-75
2022/05/23 13:54:00;;;;;;;0.30;0.30;;;22.10;99.90;;;;;;5013143;28;20200;-74
2022/05/23 13:56:26;;;;;;;0.30;0.30;;;22.30;1.00;;;;;;5013306;28;20215;-73
2022/05/23 13:59:01;;;;;;;0.30;0.30;;;22.40;1.00;;;;;;5012712;28;20203;-74
2022/05/23 14:02:11;;;;;;;0.30;0.30;;;22.50;99.90;;;;;;5013341;28;20188;-74
2022/05/23 14:04:40;;;;;;;0.30;0.30;;;22.50;1.00;;;;;;4990893;28;20180;-74
2022/05/23 14:07:15;;;;;;;0.30;0.30;;;22.60;82.40;;;;;;4990601;28;20204;-73
2022/05/23 14:09:43;;;;;;;0.37;0.37;;;22.80;99.90;;;;;;5003374;28;20563;-73
2022/05/23 14:12:12;;;;;;;0.30;0.30;;;22.80;1.00;;;;;;5012414;28;20213;-74
2022/05/23 14:14:41;;;;;;;0.30;0.30;;;22.90;1.00;;;;;;5012438;28;20223;-74
2022/05/23 14:17:28;;;;;;;0.30;0.30;;;23.00;99.90;;;;;;5012784;28;20177;-74
2022/05/23 14:20:18;;;;;;;0.30;0.30;;;23.30;1.00;;;;;;5012077;28;20180;-75